createdAt,value
2022-09-15T00:00:25.635Z,5.88
2022-09-15T00:02:53.117Z,6.40
2022-09-15T00:05:21.926Z,6.70
2022-09-15T00:07:49.584Z,7.07
2022-09-15T00:10:17.356Z,7.00
2022-09-15T00:12:46.173Z,6.72
2022-09-15T00:15:14.966Z,6.25
2022-09-15T00:17:42.728Z,6.60
2022-09-15T00:20:10.714Z,5.95
2022-09-15T00:22:38.670Z,6.38
2022-09-15T00:25:06.325Z,6.50
2022-09-15T00:27:34.119Z,6.00
2022-09-15T00:30:02.896Z,6.70
2022-09-15T00:32:30.478Z,6.30
2022-09-15T00:34:57.972Z,6.50
2022-09-15T00:37:25.417Z,7.22
2022-09-15T00:39:53.766Z,7.50
2022-09-15T00:42:22.417Z,7.75
2022-09-15T00:44:52.067Z,8.38
2022-09-15T00:47:21.392Z,7.57
2022-09-15T00:49:51.967Z,7.30
2022-09-15T00:52:24.681Z,7.78
2022-09-15T00:54:53.798Z,7.32
2022-09-15T00:57:22.394Z,7.45
2022-09-15T00:59:50.415Z,8.30
2022-09-15T01:02:19.999Z,7.95
2022-09-15T01:04:48.982Z,7.60
2022-09-15T01:07:17.872Z,6.88
2022-09-15T01:09:48.176Z,7.00
2022-09-15T01:12:15.629Z,6.83
2022-09-15T01:14:43.090Z,5.72
2022-09-15T01:17:17.101Z,6.50
2022-09-15T01:19:53.544Z,6.07
2022-09-15T01:22:26.762Z,5.53
2022-09-15T01:25:02.275Z,6.13
2022-09-15T01:27:42.437Z,6.10
2022-09-15T01:30:12.643Z,5.43
2022-09-15T01:33:07.299Z,6.20
2022-09-15T01:35:38.141Z,5.65
2022-09-15T01:38:07.672Z,5.55
2022-09-15T01:40:37.043Z,5.28
2022-09-15T01:43:05.051Z,5.18
2022-09-15T01:45:35.325Z,4.80
2022-09-15T01:48:04.360Z,5.43
2022-09-15T01:50:34.054Z,5.30
2022-09-15T01:53:02.707Z,5.15
2022-09-15T01:55:32.734Z,4.90
2022-09-15T01:58:00.248Z,5.13
2022-09-15T02:00:27.641Z,5.45
2022-09-15T02:02:59.247Z,5.57
2022-09-15T02:05:30.090Z,4.93
2022-09-15T02:08:03.305Z,5.63
2022-09-15T02:10:33.626Z,6.10
2022-09-15T02:13:06.182Z,5.93
2022-09-15T02:15:36.890Z,5.72
2022-09-15T02:18:08.467Z,5.57
2022-09-15T02:23:19.092Z,6.03
2022-09-15T02:25:48.114Z,5.72
2022-09-15T02:28:16.160Z,5.13
2022-09-15T02:30:45.059Z,6.28
2022-09-15T02:33:15.709Z,5.97
2022-09-15T02:35:43.706Z,6.10
2022-09-15T02:38:11.917Z,6.53
2022-09-15T02:40:42.171Z,5.80
2022-09-15T02:43:11.419Z,6.15
2022-09-15T02:45:38.941Z,6.95
2022-09-15T02:48:09.235Z,5.95
2022-09-15T02:50:38.434Z,6.70
2022-09-15T02:53:05.998Z,6.53
2022-09-15T02:55:33.504Z,6.65
2022-09-15T02:58:01.069Z,7.35
2022-09-15T03:00:29.034Z,7.45
2022-09-15T03:02:56.466Z,6.97
2022-09-15T03:05:24.862Z,6.72
2022-09-15T03:07:53.645Z,7.40
2022-09-15T03:10:21.669Z,7.40
2022-09-15T03:12:50.277Z,7.25
2022-09-15T03:15:18.593Z,7.07
2022-09-15T03:17:47.217Z,7.25
2022-09-15T03:20:15.480Z,6.97
2022-09-15T03:22:42.943Z,7.40
2022-09-15T03:25:12.024Z,6.82
2022-09-15T03:27:39.521Z,6.70
2022-09-15T03:30:07.785Z,7.05
2022-09-15T03:32:35.187Z,7.45
2022-09-15T03:35:02.749Z,7.00
2022-09-15T03:37:30.173Z,7.25
2022-09-15T03:39:58.061Z,7.70
2022-09-15T03:42:27.123Z,9.30
2022-09-15T03:44:54.639Z,6.70
2022-09-15T03:47:21.992Z,6.18
2022-09-15T03:49:49.393Z,6.63
2022-09-15T03:52:16.802Z,6.78
2022-09-15T03:54:44.220Z,6.93
2022-09-15T03:57:11.636Z,7.25
2022-09-15T03:59:40.416Z,8.05
2022-09-15T04:02:07.859Z,7.45
2022-09-15T04:04:35.336Z,7.13
2022-09-15T04:07:02.759Z,7.65
2022-09-15T04:09:30.557Z,7.50
2022-09-15T04:11:57.984Z,7.10
2022-09-15T04:14:25.488Z,6.85
2022-09-15T04:16:54.218Z,7.32
2022-09-15T04:19:21.711Z,7.45
2022-09-15T04:21:49.129Z,7.80
2022-09-15T04:24:17.109Z,7.28
2022-09-15T04:26:45.115Z,6.85
2022-09-15T04:29:14.006Z,6.53
2022-09-15T04:31:42.834Z,6.47
2022-09-15T04:34:11.848Z,5.95
2022-09-15T04:36:39.278Z,6.72
2022-09-15T04:39:07.007Z,6.47
2022-09-15T04:41:34.702Z,6.88
2022-09-15T04:44:02.885Z,6.28
2022-09-15T04:46:30.854Z,6.57
2022-09-15T04:48:58.289Z,6.28
2022-09-15T04:51:27.799Z,6.22
2022-09-15T04:53:55.450Z,6.35
2022-09-15T04:56:23.602Z,6.00
2022-09-15T04:58:51.856Z,5.55
2022-09-15T05:01:20.989Z,5.78
2022-09-15T05:03:48.760Z,5.38
2022-09-15T05:06:17.137Z,6.70
2022-09-15T05:08:47.599Z,5.82
2022-09-15T05:11:15.105Z,5.97
2022-09-15T05:13:42.550Z,4.85
2022-09-15T05:16:11.896Z,5.40
2022-09-15T05:18:40.297Z,5.90
2022-09-15T05:21:08.397Z,5.50
2022-09-15T05:23:36.830Z,6.10
2022-09-15T05:26:06.622Z,5.40
2022-09-15T05:28:34.737Z,5.72
2022-09-15T05:31:02.254Z,5.22
2022-09-15T05:33:29.689Z,5.35
2022-09-15T05:35:58.158Z,5.05
2022-09-15T05:38:26.185Z,5.28
2022-09-15T05:40:53.592Z,4.85
2022-09-15T05:43:22.398Z,5.10
2022-09-15T05:45:55.018Z,4.53
2022-09-15T05:48:22.521Z,4.28
2022-09-15T05:50:50.126Z,4.00
2022-09-15T05:53:17.702Z,4.63
2022-09-15T05:55:45.131Z,4.45
2022-09-15T05:58:12.667Z,3.88
2022-09-15T06:00:42.433Z,4.40
2022-09-15T06:03:13.947Z,3.92
2022-09-15T06:05:41.467Z,3.97
2022-09-15T06:08:08.857Z,3.50
2022-09-15T06:10:36.332Z,4.15
2022-09-15T06:13:03.781Z,4.57
2022-09-15T06:15:31.802Z,3.80
2022-09-15T06:18:00.584Z,4.25
2022-09-15T06:20:27.975Z,4.00
2022-09-15T06:22:56.473Z,3.67
2022-09-15T06:25:23.882Z,3.97
2022-09-15T06:27:51.350Z,4.20
2022-09-15T06:30:18.943Z,3.80
2022-09-15T06:32:48.373Z,3.72
2022-09-15T06:35:17.378Z,3.00
2022-09-15T06:37:44.811Z,3.30
2022-09-15T06:40:12.405Z,3.10
2022-09-15T06:42:39.842Z,3.08
2022-09-15T06:45:07.688Z,3.15
2022-09-15T06:47:35.357Z,2.55
2022-09-15T06:50:03.335Z,3.08
2022-09-15T06:52:32.089Z,2.97
2022-09-15T06:54:59.992Z,2.58
2022-09-15T06:57:27.380Z,2.60
2022-09-15T06:59:54.764Z,2.35
2022-09-15T07:02:22.523Z,2.30
2022-09-15T07:04:50.119Z,2.22
2022-09-15T07:07:17.673Z,2.40
2022-09-15T07:09:49.042Z,2.22
2022-09-15T07:12:16.667Z,2.22
2022-09-15T07:14:44.073Z,1.83
2022-09-15T07:17:11.479Z,2.05
2022-09-15T07:19:40.110Z,2.13
2022-09-15T07:22:07.489Z,1.80
2022-09-15T07:24:34.935Z,2.00
2022-09-15T07:27:03.707Z,1.60
2022-09-15T07:29:33.802Z,1.98
2022-09-15T07:32:03.390Z,1.77
2022-09-15T07:34:30.978Z,1.30
2022-09-15T07:36:58.370Z,1.20
2022-09-15T07:39:25.796Z,1.83
2022-09-15T07:41:53.183Z,1.38
2022-09-15T07:44:21.942Z,1.75
2022-09-15T07:46:49.358Z,1.25
2022-09-15T07:49:16.769Z,1.67
2022-09-15T07:51:44.170Z,1.50
2022-09-15T07:54:11.594Z,2.10
2022-09-15T07:56:38.980Z,1.98
2022-09-15T07:59:07.693Z,1.67
2022-09-15T08:01:36.447Z,1.23
2022-09-15T08:04:03.930Z,1.70
2022-09-15T08:06:31.382Z,1.33
2022-09-15T08:09:00.717Z,1.98
2022-09-15T08:11:28.634Z,1.38
2022-09-15T08:13:56.069Z,1.17
2022-09-15T08:16:24.263Z,1.23
2022-09-15T08:18:54.809Z,1.52
2022-09-15T08:21:22.888Z,1.40
2022-09-15T08:23:55.658Z,1.10
2022-09-15T08:26:23.476Z,1.23
2022-09-15T08:28:51.085Z,1.00
2022-09-15T08:31:19.016Z,1.40
2022-09-15T08:33:48.690Z,0.80
2022-09-15T08:36:17.527Z,1.00
2022-09-15T08:38:45.637Z,1.25
2022-09-15T08:41:14.903Z,1.00
2022-09-15T08:43:46.663Z,1.30
2022-09-15T08:46:16.974Z,1.00
2022-09-15T08:48:48.925Z,1.25
2022-09-15T08:51:22.009Z,1.13
2022-09-15T08:53:51.553Z,0.90
2022-09-15T08:56:20.620Z,1.08
2022-09-15T08:58:48.020Z,1.08
2022-09-15T09:01:23.966Z,1.00
2022-09-15T09:04:01.501Z,1.30
2022-09-15T09:06:34.900Z,1.10
2022-09-15T09:09:20.225Z,1.25
2022-09-15T09:11:55.662Z,1.10
2022-09-15T09:14:26.849Z,0.88
2022-09-15T09:19:44.166Z,0.93
2022-09-15T09:22:13.946Z,0.80
2022-09-15T09:24:44.270Z,1.52
2022-09-15T09:27:13.727Z,1.02
2022-09-15T09:29:43.523Z,0.80
2022-09-15T11:27:48.113Z,0.93
2022-09-15T11:30:18.045Z,0.70
2022-09-15T11:32:48.757Z,0.95
2022-09-15T11:38:26.470Z,0.65
2022-09-15T11:40:56.791Z,0.80
2022-09-15T11:43:29.617Z,0.90
2022-09-15T11:45:57.708Z,0.90
2022-09-15T11:48:29.226Z,0.90
2022-09-15T11:50:57.841Z,0.90
2022-09-15T11:53:29.814Z,0.73
2022-09-15T11:56:01.571Z,1.00
2022-09-15T11:58:34.000Z,0.70
2022-09-15T12:01:03.602Z,0.68
2022-09-15T12:03:35.122Z,0.90
2022-09-15T12:06:07.754Z,0.85
2022-09-15T12:08:38.374Z,0.70
2022-09-15T12:11:08.040Z,0.80
2022-09-15T12:13:35.562Z,0.85
2022-09-15T12:16:03.764Z,0.82
2022-09-15T12:18:39.335Z,0.90
2022-09-15T12:21:12.780Z,0.90
2022-09-15T12:23:42.961Z,1.20
2022-09-15T12:26:16.272Z,0.80
2022-09-15T12:29:02.171Z,0.90
2022-09-15T12:31:33.995Z,0.95
2022-09-15T12:34:02.566Z,0.98
2022-09-15T12:36:38.331Z,0.90
2022-09-15T12:39:20.795Z,0.95
2022-09-15T12:41:49.069Z,1.20
2022-09-15T12:44:25.841Z,0.93
2022-09-15T12:46:55.229Z,0.90
2022-09-15T12:49:27.477Z,0.90
2022-09-15T12:51:55.429Z,0.90
2022-09-15T12:54:25.521Z,0.95
2022-09-15T12:56:54.390Z,1.33
2022-09-15T12:59:25.196Z,1.00
2022-09-15T13:01:53.498Z,0.80
2022-09-15T13:04:28.677Z,0.90
2022-09-15T13:07:14.580Z,1.15
2022-09-15T13:09:46.341Z,1.30
2022-09-15T13:12:16.008Z,1.10
2022-09-15T13:14:48.132Z,0.80
2022-09-15T13:17:18.143Z,0.85
2022-09-15T13:19:47.606Z,0.82
2022-09-15T13:22:18.318Z,1.17
2022-09-15T13:24:49.857Z,0.98
2022-09-15T13:27:19.255Z,1.15
2022-09-15T13:29:50.141Z,0.77
2022-09-15T13:32:24.486Z,0.90
2022-09-15T13:35:15.636Z,0.90
2022-09-15T13:38:07.004Z,0.68
2022-09-15T13:41:00.687Z,1.00
2022-09-15T13:43:40.817Z,0.70
2022-09-15T13:46:14.420Z,0.98
2022-09-15T13:48:57.015Z,1.10
2022-09-15T13:51:26.057Z,1.05
2022-09-15T13:53:54.697Z,1.10
2022-09-15T13:56:26.472Z,1.05
2022-09-15T13:59:01.070Z,0.95
2022-09-15T14:01:35.261Z,1.10
2022-09-15T14:04:05.387Z,1.10
2022-09-15T14:06:36.032Z,1.55
2022-09-15T14:09:07.404Z,1.13
2022-09-15T14:11:37.295Z,1.02
2022-09-15T14:14:07.491Z,0.98
2022-09-15T14:16:35.880Z,1.07
2022-09-15T14:19:04.545Z,0.90
2022-09-15T14:21:32.968Z,0.60
2022-09-15T14:24:03.453Z,0.60
2022-09-15T14:26:31.854Z,1.23
2022-09-15T14:29:01.743Z,0.73
2022-09-15T14:31:31.310Z,0.77
2022-09-15T14:33:59.122Z,0.60
2022-09-15T14:36:28.207Z,0.68
2022-09-15T14:39:03.771Z,0.60
2022-09-15T14:41:33.025Z,0.70
2022-09-15T14:44:01.963Z,0.82
2022-09-15T14:46:36.381Z,1.20
2022-09-15T14:49:10.596Z,1.52
2022-09-15T14:51:38.074Z,1.60
2022-09-15T14:54:06.828Z,1.20
2022-09-15T14:56:35.987Z,0.95
2022-09-15T14:59:06.622Z,0.77
2022-09-15T15:01:36.644Z,0.70
2022-09-15T15:04:09.721Z,0.60
2022-09-15T15:06:39.111Z,0.93
2022-09-15T15:09:08.247Z,0.68
2022-09-15T15:11:36.066Z,0.63
2022-09-15T15:14:06.830Z,0.90
2022-09-15T15:16:34.588Z,1.33
2022-09-15T15:19:02.380Z,1.40
2022-09-15T15:21:40.005Z,1.10
2022-09-15T15:24:17.205Z,0.82
2022-09-15T15:26:45.471Z,0.80
2022-09-15T15:29:28.795Z,0.90
2022-09-15T15:32:05.940Z,1.13
2022-09-15T15:34:33.406Z,0.93
2022-09-15T15:37:03.122Z,0.98
2022-09-15T15:39:30.831Z,1.40
2022-09-15T15:42:02.778Z,1.17
2022-09-15T15:44:30.981Z,0.70
2022-09-15T15:47:01.396Z,0.80
2022-09-15T15:49:31.812Z,1.20
2022-09-15T15:54:27.454Z,0.70
2022-09-15T15:56:55.105Z,0.80
2022-09-15T15:59:22.561Z,0.65
2022-09-15T16:01:51.660Z,0.52
2022-09-15T16:04:19.124Z,0.85
2022-09-15T16:06:48.561Z,0.80
2022-09-15T16:09:17.179Z,0.80
2022-09-15T16:11:45.212Z,0.80
2022-09-15T16:14:14.073Z,0.80
2022-09-15T16:16:41.656Z,0.50
2022-09-15T16:19:09.618Z,0.90
2022-09-15T16:21:39.659Z,0.80
2022-09-15T16:24:12.730Z,0.90
2022-09-15T16:26:40.461Z,0.73
2022-09-15T16:29:08.011Z,1.00
2022-09-15T16:31:35.610Z,0.75
2022-09-15T16:34:03.143Z,0.75
2022-09-15T16:36:31.497Z,0.95
2022-09-15T16:38:58.938Z,0.75
2022-09-15T16:41:27.702Z,0.93
2022-09-15T16:43:55.725Z,0.55
2022-09-15T16:46:23.242Z,1.25
2022-09-15T16:48:50.663Z,0.60
2022-09-15T16:51:34.490Z,0.77
2022-09-15T16:54:01.945Z,0.50
2022-09-15T16:56:30.702Z,0.80
2022-09-15T16:59:00.547Z,0.60
2022-09-15T17:01:28.817Z,0.77
2022-09-15T17:03:56.194Z,0.70
2022-09-15T17:06:23.670Z,0.55
2022-09-15T17:08:51.138Z,0.70
2022-09-15T17:11:19.289Z,0.90
2022-09-15T17:13:48.109Z,0.70
2022-09-15T17:16:16.371Z,0.80
2022-09-15T17:18:43.956Z,0.60
2022-09-15T17:21:12.116Z,0.85
2022-09-15T17:23:40.576Z,1.02
2022-09-15T17:26:11.414Z,1.30
2022-09-15T17:28:39.462Z,1.20
2022-09-15T17:31:13.165Z,1.10
2022-09-15T17:33:40.714Z,1.13
2022-09-15T17:36:08.311Z,0.80
2022-09-15T17:38:35.777Z,0.80
2022-09-15T17:41:03.259Z,0.93
2022-09-15T17:43:31.588Z,0.77
2022-09-15T17:45:59.236Z,0.90
2022-09-15T17:48:28.076Z,0.82
2022-09-15T17:50:55.555Z,0.90
2022-09-15T17:53:24.029Z,0.90
2022-09-15T17:55:51.671Z,0.75
2022-09-15T17:58:19.483Z,0.95
2022-09-15T18:00:47.366Z,0.80
2022-09-15T18:03:20.330Z,0.90
2022-09-15T18:05:49.342Z,1.25
2022-09-15T18:08:16.892Z,1.02
2022-09-15T18:10:44.653Z,0.90
2022-09-15T18:13:14.470Z,0.80
2022-09-15T18:15:42.804Z,0.90
2022-09-15T18:18:12.684Z,1.20
2022-09-15T18:20:40.170Z,1.25
2022-09-15T18:23:11.048Z,0.88
2022-09-15T18:25:38.484Z,1.10
2022-09-15T18:28:05.943Z,0.82
2022-09-15T18:30:36.286Z,0.90
2022-09-15T18:33:03.833Z,0.90
2022-09-15T18:35:31.266Z,1.00
2022-09-15T18:37:59.685Z,1.17
2022-09-15T18:40:28.661Z,1.13
2022-09-15T18:42:56.624Z,0.70
2022-09-15T18:45:24.136Z,1.00
2022-09-15T18:47:52.414Z,0.90
2022-09-15T18:50:20.848Z,0.90
2022-09-15T18:52:48.463Z,0.90
2022-09-15T18:55:17.211Z,1.00
2022-09-15T18:57:46.034Z,1.13
2022-09-15T19:00:14.525Z,0.70
2022-09-15T19:02:42.067Z,1.05
2022-09-15T19:05:11.363Z,1.00
2022-09-15T19:07:38.966Z,1.10
2022-09-15T19:10:06.936Z,0.85
2022-09-15T19:12:35.521Z,0.70
2022-09-15T19:15:04.522Z,1.00
2022-09-15T19:17:32.017Z,0.88
2022-09-15T19:20:00.259Z,0.85
2022-09-15T19:22:27.806Z,1.13
2022-09-15T19:24:55.302Z,1.48
2022-09-15T19:27:23.389Z,0.85
2022-09-15T19:29:50.921Z,1.00
2022-09-15T19:32:20.883Z,1.17
2022-09-15T19:34:48.990Z,1.17
2022-09-15T19:37:18.995Z,0.98
2022-09-15T19:39:46.839Z,1.20
2022-09-15T19:44:43.170Z,1.05
2022-09-15T19:47:10.995Z,1.00
2022-09-15T19:49:39.787Z,0.82
2022-09-15T19:52:07.241Z,1.25
2022-09-15T19:54:35.240Z,1.00
2022-09-15T19:57:02.900Z,0.90
2022-09-15T19:59:31.866Z,0.90
2022-09-15T20:01:59.978Z,0.93
2022-09-15T20:04:27.804Z,1.02
2022-09-15T20:06:56.573Z,1.55
2022-09-15T20:09:24.017Z,1.13
2022-09-15T20:11:51.493Z,1.02
2022-09-15T20:14:18.932Z,0.95
2022-09-15T20:16:46.394Z,1.25
2022-09-15T20:19:13.915Z,1.20
2022-09-15T20:21:50.886Z,1.15
2022-09-15T20:24:20.802Z,1.08
2022-09-15T20:26:48.381Z,0.55
2022-09-15T20:29:15.801Z,1.00
2022-09-15T20:31:43.490Z,0.80
2022-09-15T20:34:11.023Z,0.73
2022-09-15T20:36:39.368Z,1.08
2022-09-15T20:39:08.736Z,1.20
2022-09-15T20:41:37.709Z,0.85
2022-09-15T20:44:05.965Z,1.00
2022-09-15T20:46:33.466Z,0.80
2022-09-15T20:49:01.353Z,1.00
2022-09-15T20:51:31.676Z,1.02
2022-09-15T20:54:00.222Z,0.90
2022-09-15T20:56:28.797Z,1.08
2022-09-15T20:58:58.380Z,0.80
2022-09-15T21:01:26.797Z,1.30
2022-09-15T21:03:55.212Z,0.73
2022-09-15T21:06:23.953Z,0.80
2022-09-15T21:08:51.385Z,0.90
2022-09-15T21:11:19.434Z,0.88
2022-09-15T21:13:47.154Z,0.70
2022-09-15T21:16:16.638Z,0.77
2022-09-15T21:18:44.407Z,0.82
2022-09-15T21:21:13.102Z,0.93
2022-09-15T21:23:41.668Z,0.80
2022-09-15T21:26:10.201Z,1.27
2022-09-15T21:28:38.498Z,1.00
2022-09-15T21:31:06.610Z,1.00
2022-09-15T21:33:35.900Z,0.88
2022-09-15T21:36:04.970Z,1.00
2022-09-15T21:38:32.515Z,1.20
2022-09-15T21:40:59.991Z,0.90
2022-09-15T21:43:29.982Z,0.85
2022-09-15T21:45:57.495Z,0.75
2022-09-15T21:48:24.918Z,0.75
2022-09-15T21:50:54.002Z,0.73
2022-09-15T21:53:21.796Z,0.77
2022-09-15T21:55:50.299Z,0.90
2022-09-15T21:58:17.807Z,0.60
2022-09-15T22:00:45.312Z,1.00
2022-09-15T22:03:12.989Z,0.85
2022-09-15T22:05:40.784Z,1.55
2022-09-15T22:08:10.416Z,0.90
2022-09-15T22:10:37.893Z,0.80
2022-09-15T22:13:05.986Z,0.68
2022-09-15T22:15:33.602Z,0.80
2022-09-15T22:18:01.287Z,0.93
2022-09-15T22:20:29.354Z,0.60
2022-09-15T22:22:57.027Z,0.85
2022-09-15T22:25:26.408Z,1.00
2022-09-15T22:27:53.915Z,1.15
2022-09-15T22:30:21.408Z,0.70
2022-09-15T22:32:48.919Z,0.60
2022-09-15T22:35:17.293Z,0.90
2022-09-15T22:37:44.777Z,1.00
2022-09-15T22:40:12.397Z,0.98
2022-09-15T22:42:41.217Z,1.10
2022-09-15T22:45:11.472Z,1.00
2022-09-15T22:47:38.925Z,0.80
2022-09-15T22:50:06.510Z,0.82
2022-09-15T22:52:33.974Z,1.23
2022-09-15T22:55:01.823Z,0.88
2022-09-15T22:57:29.326Z,1.02
2022-09-15T22:59:58.120Z,1.00
2022-09-15T23:02:25.619Z,0.77
2022-09-15T23:04:54.182Z,0.95
2022-09-15T23:07:21.601Z,0.80
2022-09-15T23:09:49.267Z,1.10
2022-09-15T23:12:17.132Z,0.88
2022-09-15T23:14:44.567Z,0.80
2022-09-15T23:17:13.327Z,0.73
2022-09-15T23:19:40.760Z,0.90
2022-09-15T23:22:08.160Z,1.08
2022-09-15T23:24:35.773Z,0.95
2022-09-15T23:27:04.344Z,0.95
2022-09-15T23:29:31.833Z,0.98
2022-09-15T23:31:59.388Z,1.42
2022-09-15T23:34:28.207Z,0.93
2022-09-15T23:36:55.847Z,0.90
2022-09-15T23:39:23.453Z,1.20
2022-09-15T23:41:50.872Z,1.20
2022-09-15T23:44:18.277Z,1.20
2022-09-15T23:46:45.811Z,0.95
2022-09-15T23:49:17.983Z,1.10
2022-09-15T23:51:47.488Z,1.27
2022-09-15T23:54:14.989Z,1.42
2022-09-15T23:56:43.268Z,1.30
2022-09-15T23:59:10.778Z,1.95
